Tower City, PA (17980)

1:42 PM EDT on April 26, 2015 (GMT -0400)
Reinerton | | Change Station
CLOSE
Current Station
Personal Weather Station
Location: Tower City, PA
Elevation: 837 ft
Nearby Weather Stations

Elev 837 ft 40.59 °N, 76.53 °W | Updated 28 seconds ago

Clear
Clear
56.8 °F
Feels Like 56.8 °F
N
3.6
Wind Variable Wind from East
Gusts 7.4 mph

Today
High -- | Low -- °F
--% Chance of Precip.
Yesterday
High -- | Low -- °F
Precip. -- in
6:12 AM 7:56 PM
First Quarter, 57% visible
Pressure 29.72 in
Visibility 10.0 miles
Clouds Clear
Dew Point 27 °F
Humidity 32%
Rainfall 0.00 in
Snow Depth Not available.
UV 6.0 out of 12
Pollen 10.30 out of 12
Air Quality Not available.
Flu Activity Sporadic
METAR KMUI 261658Z AUTO 32007KT 280V020 10SM CLR 14/M03 A2971 RMK AO2 SLP064 T01401026 $

More Conditions Fewer Conditions

Pressure 29.72 in
Visibility 10.0 miles
Clouds Clear
Dew Point 27 °F
Humidity 32%
Rainfall 0.00 in
Snow Depth Not available.
UV 6.0 out of 12
Pollen 10.30 out of 12
Air Quality Not available.
Flu Activity Sporadic
METAR KMUI 261658Z AUTO 32007KT 280V020 10SM CLR 14/M03 A2971 RMK AO2 SLP064 T01401026 $

More Conditions Fewer Conditions

The full scope of the disaster following a powerful 7.8-magnitude earthquake in Nepal may not come into view for days, but global charities are already sending emergency aid. Click to see how you can help.

10-Day Weather Forecast

Almanac

Astronomy

Apr. 26, 2015 Rise Set
Actual Time
Civil Twilight
Nautical Twilight
Astronomical Twilight
Moon
Length of Visible Light
Length of Day
Tomorrow will be .
, % of the Moon is Illuminated

Today's Extremes

State Highs State Lows

Community

WunderPhotos

Upload Photos

1,817,066 photos uploaded!

WunderBlogs® & News

Nearby

Air Quality

  Air Quality AQ Index Pollutant
Not available.

Snow Depth

Station Depth Elevation

Earthquake Activity

City Distance Mag. Time & Date
Minimum magnitude displayed is 2.5.

Coastal Water Temperatures

Place Temperature

Stations

Nearby Weather Stations

Station Location Temp. Windchill Dew Point Humidity Wind Precip. Elev Updated Type